Shomei — JD2716 — position and weather

sailwx.info

Track history (hours):
 
Tides and Currents Weather Stations Pressure Air Temp Water Temp Dewpoint Dewpoint Depression Visibility Wind Speed Wind Dir Waves Ship Positions

Shomei

Last reported at 2018-Jul-21 05:17 UTC. Time now 2018-Jul-21 19:28 UTC.
Position N 34°44' E 134°34'.

Length 74 m; draft 3.5 m.

Type: Tanker. MMSI: 431000635.

Date/timePositionNaut miles runAvg speedWind from/ knotsBaromVisibWave heightAir tempDewpointWater temp
2018-Jul-21 05:17N 34°44' E 134°34'10 2.0
2018-Jul-21 00:20N 34°41' E 134°46'411.3
2018-Jul-20 23:59N 34°39' E 134°50'5 9.9
2018-Jul-20 23:29N 34°37' E 134°55'510.2
2018-Jul-20 23:00N 34°37' E 135°02'5 9.3
2018-Jul-20 22:30N 34°34' E 135°06'611.9
2018-Jul-20 22:00N 34°28' E 135°04'611.7
2018-Jul-20 21:30N 34°23' E 135°02'611.6
2018-Jul-20 21:00N 34°17' E 134°59'612.1
2018-Jul-20 20:30N 34°11' E 134°60'612.9
2018-Jul-20 20:00N 34°05' E 135°00'612.6
2018-Jul-20 19:30N 33°58' E 135°01'612.2
2018-Jul-20 18:59N 33°52' E 135°01'  
Track history (hours):
 
Tides and Currents Weather Stations Pressure Air Temp Water Temp Dewpoint Dewpoint Depression Visibility Wind Speed Wind Dir Waves Ship Positions

Shomei

Last reported at 2018-Jul-21 05:17 UTC. Time now 2018-Jul-21 19:28 UTC.
Position N 34°44' E 134°34'.

Length 74 m; draft 3.5 m.

Type: Tanker. MMSI: 431000635.

Date/timePositionNaut miles runAvg speedWind from/ knotsBaromVisibWave heightAir tempDewpointWater temp
2018-Jul-21 05:17N 34°44' E 134°34'10 2.0
2018-Jul-21 00:20N 34°41' E 134°46'411.3
2018-Jul-20 23:59N 34°39' E 134°50'5 9.9
2018-Jul-20 23:29N 34°37' E 134°55'510.2
2018-Jul-20 23:00N 34°37' E 135°02'5 9.3
2018-Jul-20 22:30N 34°34' E 135°06'611.9
2018-Jul-20 22:00N 34°28' E 135°04'611.7
2018-Jul-20 21:30N 34°23' E 135°02'611.6
2018-Jul-20 21:00N 34°17' E 134°59'612.1
2018-Jul-20 20:30N 34°11' E 134°60'612.9
2018-Jul-20 20:00N 34°05' E 135°00'612.6
2018-Jul-20 19:30N 33°58' E 135°01'612.2
2018-Jul-20 18:59N 33°52' E 135°01'  

Dump ship's entire track history